Overview Statistics Trail Chart Weather Telemetry Raw packets
 

This is the latest recevied weather packets stored in our database for station/object IW1RID-3. If no packets are shown the sender has not sent any weather packets the latest 10 day(s).

<< 16 17 18 19 20 21 22 >>
Time Temp. Humidity Pressure Rain* Wind** Luminosity Snow
1788124226 22.22° C 76% 1072.8 hPa - - - -
1788123021 22.78° C 76% 1072.7 hPa - - - -
1788121816 22.78° C 75% 1072.8 hPa - - - -
1788120611 23.33° C 74% 1072.8 hPa - - - -
1788119407 23.89° C 73% 1072.7 hPa - - - -
1788118202 24.44° C 73% 1072.7 hPa - - - -
1788116997 25° C 73% 1072.5 hPa - - - -
1788115792 25.56° C 78% 1072.2 hPa - - - -
1788114587 26.11° C 75% 1072.1 hPa - - - -
1788113381 26.11° C 75% 1072 hPa - - - -
1788112175 26.11° C 72% 1072 hPa - - - -
1788110969 27.22° C 66% 1072.1 hPa - - - -
1788109763 28.89° C 58% 1072.1 hPa - - - -
1788108558 29.44° C 55% 1072.3 hPa - - - -
1788107351 30° C 53% 1072.5 hPa - - - -
1788106145 31.11° C 48% 1072.4 hPa - - - -
1788104939 31.11° C 45% 1072.6 hPa - - - -
1788103733 31.67° C 46% 1072.5 hPa - - - -
1788102529 32.22° C 47% 1072.6 hPa - - - -
1788101324 32.22° C 48% 1072.7 hPa - - - -
1788100119 32.22° C 45% 1072.8 hPa - - - -
1788098914 31.11° C 49% 1073.1 hPa - - - -
1788097709 30.56° C 53% 1073.1 hPa - - - -
1788096504 30.56° C 53% 1073.2 hPa - - - -
1788095300 30.56° C 55% 1073.2 hPa - - - -

* Rain since midnight (hover to see other rain measurements)
** Current wind speed in m/s (hover to see current wind gust speed)